Time;durP1;ratioP1;P1;durP2;ratioP2;P2;SDS_P1;SDS_P2;PMS_P1;PMS_P2;Temp;Humidity;BMP_temperature;BMP_pressure;BME280_temperature;BME280_humidity;BME280_pressure;Samples;Min_cycle;Max_cycle;Signal;HPM_P1;HPM_P2
2024/03/09 00:00:29;;;;;;;43.67;21.43;;;;;;;;;;4969181;28;20099;-80
2024/03/09 00:02:56;;;;;;;39.13;19.23;;;;;;;;;;4985282;28;20268;-79
2024/03/09 00:05:26;;;;;;;34.85;18.75;;;;;;;;;;4997634;28;20031;-79
2024/03/09 00:07:57;;;;;;;38.75;19.58;;;;;;;;;;5000853;28;20456;-80
2024/03/09 00:10:49;;;;;;;36.30;19.38;;;;;;;;;;4998052;28;20137;-80
2024/03/09 00:13:15;;;;;;;40.60;19.80;;;;;;;;;;5008373;28;20054;-79
2024/03/09 00:15:51;;;;;;;41.65;18.70;;;;;;;;;;4997777;28;20041;-79
2024/03/09 00:18:18;;;;;;;41.00;18.75;;;;;;;;;;4981238;28;20101;-79
2024/03/09 00:20:49;;;;;;;39.33;19.08;;;;;;;;;;4988502;28;20034;-79
2024/03/09 00:23:14;;;;;;;34.90;18.88;;;;;;;;;;5000114;28;20026;-79
2024/03/09 00:25:40;;;;;;;36.58;18.13;;;;;;;;;;4976539;28;20042;-81
2024/03/09 00:28:07;;;;;;;40.30;18.33;;;;;;;;;;4997358;28;20038;-79
2024/03/09 00:30:34;;;;;;;35.40;17.58;;;;;;;;;;4965789;28;20421;-79
2024/03/09 00:33:05;;;;;;;32.00;17.75;;;;;;;;;;4989902;28;20043;-80
2024/03/09 00:35:31;;;;;;;36.28;17.65;;;;;;;;;;5002697;28;20030;-79
2024/03/09 00:37:59;;;;;;;38.50;17.55;;;;;;;;;;5001558;28;20124;-79
2024/03/09 00:40:28;;;;;;;34.50;17.47;;;;;;;;;;5007616;28;20024;-79
2024/03/09 00:42:55;;;;;;;33.33;16.52;;;;;;;;;;4998404;28;20023;-79
2024/03/09 00:45:21;;;;;;;39.83;18.55;;;;;;;;;;5020824;28;20045;-78
2024/03/09 00:47:48;;;;;;;32.72;16.60;;;;;;;;;;5021213;28;20049;-80
2024/03/09 00:50:15;;;;;;;32.80;16.52;;;;;;;;;;5039128;28;20018;-79
2024/03/09 00:52:41;;;;;;;34.13;17.13;;;;;;;;;;5018717;28;20042;-79
2024/03/09 00:55:10;;;;;;;35.20;16.65;;;;;;;;;;4990911;28;20018;-79
2024/03/09 00:57:44;;;;;;;34.58;17.80;;;;;;;;;;4995919;28;20030;-80
2024/03/09 01:00:11;;;;;;;33.55;17.85;;;;;;;;;;4969721;28;20122;-80
2024/03/09 01:02:45;;;;;;;37.10;17.98;;;;;;;;;;4999750;28;20033;-80
2024/03/09 01:05:12;;;;;;;29.27;16.05;;;;;;;;;;5008123;28;20035;-81
2024/03/09 01:07:40;;;;;;;31.42;16.48;;;;;;;;;;5001364;28;20042;-81
2024/03/09 01:10:07;;;;;;;32.60;16.08;;;;;;;;;;4985720;28;20109;-79
2024/03/09 01:12:33;;;;;;;31.42;15.50;;;;;;;;;;4991472;28;20443;-78
2024/03/09 01:15:00;;;;;;;31.40;16.05;;;;;;;;;;5004487;28;20044;-79
2024/03/09 01:17:28;;;;;;;32.00;15.75;;;;;;;;;;4999058;28;20058;-80
2024/03/09 01:20:00;;;;;;;34.20;16.85;;;;;;;;;;4967261;28;20054;-79
2024/03/09 01:22:27;;;;;;;31.95;16.05;;;;;;;;;;4977804;28;20049;-79
2024/03/09 01:24:52;;;;;;;34.60;14.88;;;;;;;;;;5005790;28;20030;-79
2024/03/09 01:27:21;;;;;;;28.35;14.38;;;;;;;;;;4972327;28;20030;-80
2024/03/09 01:29:48;;;;;;;28.60;15.00;;;;;;;;;;4978711;28;20146;-80
2024/03/09 01:32:14;;;;;;;31.30;15.15;;;;;;;;;;5006647;28;20070;-80
2024/03/09 01:34:41;;;;;;;30.90;15.43;;;;;;;;;;4967167;28;20038;-79
2024/03/09 01:37:10;;;;;;;30.33;15.18;;;;;;;;;;5009342;28;20038;-79
2024/03/09 01:39:41;;;;;;;32.05;15.57;;;;;;;;;;5005497;28;20028;-79
2024/03/09 01:42:11;;;;;;;30.30;14.38;;;;;;;;;;5002574;28;20509;-80
2024/03/09 01:44:42;;;;;;;29.20;14.55;;;;;;;;;;4973320;28;20041;-79
2024/03/09 01:47:10;;;;;;;27.58;13.85;;;;;;;;;;4999092;28;20034;-79
2024/03/09 01:49:38;;;;;;;29.70;15.05;;;;;;;;;;4998394;28;20129;-80
2024/03/09 01:52:05;;;;;;;30.15;15.75;;;;;;;;;;4982754;28;20528;-80
2024/03/09 01:54:34;;;;;;;30.50;14.82;;;;;;;;;;4991305;28;20026;-80
2024/03/09 01:57:03;;;;;;;31.27;15.10;;;;;;;;;;4994473;28;20493;-80
2024/03/09 01:59:29;;;;;;;29.98;14.80;;;;;;;;;;5003812;28;20053;-80
2024/03/09 02:01:55;;;;;;;34.92;14.82;;;;;;;;;;4994988;28;20084;-79
2024/03/09 02:04:24;;;;;;;30.27;14.73;;;;;;;;;;4991519;28;20034;-80
2024/03/09 02:06:51;;;;;;;27.58;13.77;;;;;;;;;;5001953;28;20033;-79
2024/03/09 02:09:20;;;;;;;29.23;14.30;;;;;;;;;;5002721;28;20038;-81
2024/03/09 02:11:48;;;;;;;28.45;14.77;;;;;;;;;;4972094;28;20524;-81
2024/03/09 02:14:14;;;;;;;30.58;14.43;;;;;;;;;;5001724;28;20110;-80
2024/03/09 02:16:41;;;;;;;32.85;14.77;;;;;;;;;;4999554;28;20054;-79
2024/03/09 02:19:09;;;;;;;30.63;14.13;;;;;;;;;;4984312;28;20038;-80
2024/03/09 02:21:37;;;;;;;33.03;16.02;;;;;;;;;;4966922;28;20041;-80
2024/03/09 02:24:11;;;;;;;32.30;14.25;;;;;;;;;;5011716;28;20033;-78
2024/03/09 02:26:38;;;;;;;33.33;15.38;;;;;;;;;;4988747;28;20026;-78
2024/03/09 02:29:05;;;;;;;28.92;14.27;;;;;;;;;;5000444;28;20409;-79
2024/03/09 02:31:33;;;;;;;30.55;14.32;;;;;;;;;;4994328;28;20038;-80
2024/03/09 02:33:58;;;;;;;29.33;14.27;;;;;;;;;;4966753;28;20049;-80
2024/03/09 02:36:26;;;;;;;27.90;14.52;;;;;;;;;;4994678;28;20501;-80
2024/03/09 02:38:51;;;;;;;26.85;14.23;;;;;;;;;;5001835;28;20490;-80
2024/03/09 02:41:17;;;;;;;30.30;14.43;;;;;;;;;;5001032;28;20077;-79
2024/03/09 02:43:46;;;;;;;28.35;14.50;;;;;;;;;;5010777;28;20057;-80
2024/03/09 02:46:17;;;;;;;26.27;14.15;;;;;;;;;;4984193;28;20030;-79
2024/03/09 02:48:43;;;;;;;33.83;14.35;;;;;;;;;;4976963;28;20136;-79
2024/03/09 02:51:16;;;;;;;30.38;14.40;;;;;;;;;;5009052;28;20026;-79
2024/03/09 02:53:42;;;;;;;28.48;14.02;;;;;;;;;;4987373;28;20058;-78
2024/03/09 02:56:12;;;;;;;28.40;14.15;;;;;;;;;;5013940;28;20101;-80
2024/03/09 02:58:41;;;;;;;32.35;13.70;;;;;;;;;;5011688;28;20069;-78
2024/03/09 03:01:07;;;;;;;27.83;13.82;;;;;;;;;;5000723;28;20080;-80
2024/03/09 03:03:49;;;;;;;31.25;14.60;;;;;;;;;;4972160;28;20045;-78
2024/03/09 03:06:18;;;;;;;29.33;13.82;;;;;;;;;;4981864;28;20077;-78
2024/03/09 03:08:53;;;;;;;28.27;13.38;;;;;;;;;;4998176;28;20046;-79
2024/03/09 03:11:21;;;;;;;30.88;14.20;;;;;;;;;;5002245;28;20030;-79
2024/03/09 03:13:48;;;;;;;31.13;14.82;;;;;;;;;;5001991;28;20065;-80
2024/03/09 03:16:27;;;;;;;27.48;13.63;;;;;;;;;;5016803;28;20022;-80
2024/03/09 03:18:53;;;;;;;26.85;13.52;;;;;;;;;;4993926;28;20496;-79
2024/03/09 03:21:19;;;;;;;28.23;13.13;;;;;;;;;;4964280;28;20038;-79
2024/03/09 03:23:48;;;;;;;29.33;13.73;;;;;;;;;;4977346;28;20029;-79
2024/03/09 03:26:16;;;;;;;29.67;13.20;;;;;;;;;;4994533;28;20054;-80
2024/03/09 03:28:48;;;;;;;25.13;12.38;;;;;;;;;;4993040;28;20038;-78
2024/03/09 03:31:18;;;;;;;29.10;13.70;;;;;;;;;;5002522;28;20046;-79
2024/03/09 03:33:45;;;;;;;25.98;12.15;;;;;;;;;;4995130;28;20080;-78
2024/03/09 03:36:18;;;;;;;25.40;12.70;;;;;;;;;;5011258;28;20022;-79
2024/03/09 03:38:47;;;;;;;28.95;13.00;;;;;;;;;;4970435;28;20035;-80
2024/03/09 03:41:17;;;;;;;28.27;13.60;;;;;;;;;;4980063;28;20031;-79
2024/03/09 03:43:42;;;;;;;24.50;12.23;;;;;;;;;;5010588;28;20405;-78
2024/03/09 03:46:09;;;;;;;29.65;14.23;;;;;;;;;;5002077;28;20019;-79
2024/03/09 03:48:36;;;;;;;25.20;11.88;;;;;;;;;;5018332;28;20026;-80
2024/03/09 03:51:07;;;;;;;;;;;;;;;;;;5003256;28;20014;-80
2024/03/09 03:53:33;;;;;;;28.60;12.43;;;;;;;;;;5002494;28;19957;-79
2024/03/09 03:55:59;;;;;;;28.48;12.80;;;;;;;;;;5018788;28;20029;-79
2024/03/09 03:58:32;;;;;;;26.40;12.40;;;;;;;;;;5038165;28;20105;-80
2024/03/09 04:01:00;;;;;;;31.75;13.85;;;;;;;;;;5018686;28;20037;-78
2024/03/09 04:03:31;;;;;;;32.65;14.20;;;;;;;;;;5015668;28;20029;-79
2024/03/09 04:06:00;;;;;;;29.73;14.40;;;;;;;;;;5033269;28;20045;-80
2024/03/09 04:08:26;;;;;;;26.77;12.95;;;;;;;;;;4997057;28;20079;-79
2024/03/09 04:10:53;;;;;;;24.17;12.40;;;;;;;;;;4983523;28;20046;-78
2024/03/09 04:13:23;;;;;;;25.80;11.82;;;;;;;;;;4976570;28;20088;-79
2024/03/09 04:15:49;;;;;;;26.40;13.50;;;;;;;;;;5011774;28;20473;-79
2024/03/09 04:18:16;;;;;;;22.75;12.45;;;;;;;;;;4951568;28;20441;-79
2024/03/09 04:20:43;;;;;;;23.48;12.43;;;;;;;;;;4997180;28;20030;-79
2024/03/09 04:23:15;;;;;;;31.13;13.40;;;;;;;;;;4971293;28;20081;-79
2024/03/09 04:25:41;;;;;;;30.48;13.95;;;;;;;;;;4996810;28;20030;-80
2024/03/09 04:28:11;;;;;;;32.65;14.38;;;;;;;;;;4982353;28;20034;-79
2024/03/09 04:30:37;;;;;;;27.67;13.93;;;;;;;;;;4967021;28;20679;-79
2024/03/09 04:33:04;;;;;;;30.48;14.57;;;;;;;;;;4987096;28;20033;-79
2024/03/09 04:35:35;;;;;;;26.13;12.48;;;;;;;;;;4994178;28;20046;-80
2024/03/09 04:38:03;;;;;;;27.45;12.57;;;;;;;;;;5009092;28;20105;-81
2024/03/09 04:40:30;;;;;;;25.40;13.18;;;;;;;;;;5003826;28;20448;-81
2024/03/09 04:42:58;;;;;;;24.65;12.85;;;;;;;;;;5003780;28;20030;-81
2024/03/09 04:45:50;;;;;;;30.20;14.23;;;;;;;;;;4955622;28;20101;-79
2024/03/09 04:48:35;;;;;;;29.45;13.32;;;;;;;;;;4982135;28;20513;-78
2024/03/09 04:53:57;;;;;;;24.40;12.38;;;;;;;;;;4968406;28;20004;-79
2024/03/09 04:56:24;;;;;;;;;;;;;;;;;;4964790;28;20035;-78
2024/03/09 04:58:55;;;;;;;;;;;;;;;;;;4968069;28;19916;-80
2024/03/09 05:01:45;;;;;;;31.80;13.52;;;;;;;;;;4971999;28;19910;-78
2024/03/09 05:04:17;;;;;;;27.52;13.13;;;;;;;;;;4960783;28;20101;-78
2024/03/09 05:07:17;;;;;;;26.58;13.20;;;;;;;;;;4953592;28;20038;-79
2024/03/09 05:09:57;;;;;;;27.50;13.82;;;;;;;;;;4967617;28;20043;-78
2024/03/09 05:12:27;;;;;;;27.45;13.68;;;;;;;;;;4977887;28;20050;-80
2024/03/09 05:15:12;;;;;;;29.23;13.73;;;;;;;;;;4952356;28;20039;-79
2024/03/09 05:17:43;;;;;;;28.70;13.35;;;;;;;;;;4981393;28;20065;-81
2024/03/09 05:20:22;;;;;;;31.40;14.88;;;;;;;;;;4970093;28;20043;-79
2024/03/09 05:22:54;;;;;;;32.13;13.75;;;;;;;;;;4993380;28;20042;-79
2024/03/09 05:25:26;;;;;;;29.57;13.63;;;;;;;;;;4995652;28;20033;-79
2024/03/09 05:28:06;;;;;;;30.92;15.93;;;;;;;;;;4996775;28;20035;-79
2024/03/09 05:30:47;;;;;;;30.27;13.43;;;;;;;;;;4979324;28;20038;-80
2024/03/09 05:33:28;;;;;;;31.58;14.15;;;;;;;;;;5001374;28;20043;-79
2024/03/09 05:36:08;;;;;;;27.52;13.73;;;;;;;;;;4998303;28;20093;-79
2024/03/09 05:38:54;;;;;;;25.25;13.50;;;;;;;;;;4993700;28;20053;-78
2024/03/09 05:41:55;;;;;;;34.20;13.50;;;;;;;;;;4978540;28;20069;-79
2024/03/09 05:44:59;;;;;;;27.05;13.30;;;;;;;;;;4994661;28;20050;-79
2024/03/09 05:47:44;;;;;;;25.80;12.73;;;;;;;;;;4967060;28;20033;-79
2024/03/09 05:53:30;;;;;;;27.58;12.35;;;;;;;;;;5004947;28;20516;-79
2024/03/09 05:56:04;;;;;;;28.48;12.82;;;;;;;;;;4995599;28;20113;-78
2024/03/09 05:58:53;;;;;;;25.92;13.23;;;;;;;;;;4985911;28;20129;-79
2024/03/09 06:01:52;;;;;;;31.70;13.43;;;;;;;;;;5003743;28;20424;-79
2024/03/09 06:04:23;;;;;;;29.08;14.15;;;;;;;;;;5002730;28;20038;-78
2024/03/09 06:06:49;;;;;;;29.63;13.18;;;;;;;;;;4994418;28;20034;-80
2024/03/09 06:09:15;;;;;;;29.77;14.00;;;;;;;;;;4973892;28;20046;-78
2024/03/09 06:12:06;;;;;;;26.10;12.85;;;;;;;;;;5003324;28;20050;-79
2024/03/09 06:14:50;;;;;;;27.17;12.90;;;;;;;;;;5006925;28;20057;-79
2024/03/09 06:17:16;;;;;;;;;;;;;;;;;;5005922;28;20587;-79
2024/03/09 06:19:54;;;;;;;27.38;12.38;;;;;;;;;;4999316;28;19917;-79
2024/03/09 06:22:32;;;;;;;33.67;12.98;;;;;;;;;;4973053;28;20042;-80
2024/03/09 06:25:09;;;;;;;27.92;13.40;;;;;;;;;;4998845;28;20123;-78
2024/03/09 06:27:53;;;;;;;28.98;13.07;;;;;;;;;;4992750;28;20034;-79
2024/03/09 06:30:27;;;;;;;28.15;12.82;;;;;;;;;;5023283;28;20054;-79
2024/03/09 06:32:57;;;;;;;30.63;14.07;;;;;;;;;;4981385;28;20030;-78
2024/03/09 06:35:40;;;;;;;31.58;15.10;;;;;;;;;;5014078;28;20029;-79
2024/03/09 06:38:35;;;;;;;28.02;12.82;;;;;;;;;;4997277;28;20043;-80
2024/03/09 06:41:10;;;;;;;28.17;13.63;;;;;;;;;;4999432;28;20086;-79
2024/03/09 06:43:52;;;;;;;26.50;13.93;;;;;;;;;;5000377;28;20046;-80
2024/03/09 06:46:21;;;;;;;25.08;11.98;;;;;;;;;;4977493;28;20066;-80
2024/03/09 06:49:21;;;;;;;29.35;13.75;;;;;;;;;;5009949;28;20053;-79
2024/03/09 06:51:56;;;;;;;33.00;12.23;;;;;;;;;;4998563;28;20545;-79
2024/03/09 06:54:53;;;;;;;24.85;12.77;;;;;;;;;;4977956;28;20042;-79
2024/03/09 06:57:22;;;;;;;30.77;13.90;;;;;;;;;;4992093;28;20028;-81
2024/03/09 06:59:56;;;;;;;25.35;12.60;;;;;;;;;;4997934;28;20042;-79
2024/03/09 07:02:28;;;;;;;29.40;14.52;;;;;;;;;;4972963;28;20042;-79
2024/03/09 07:04:55;;;;;;;25.95;13.02;;;;;;;;;;5007756;28;20030;-79
2024/03/09 07:07:32;;;;;;;27.52;13.27;;;;;;;;;;4979533;28;20100;-80
2024/03/09 07:10:02;;;;;;;31.13;12.18;;;;;;;;;;5003703;28;20030;-78
2024/03/09 07:13:00;;;;;;;28.00;11.77;;;;;;;;;;4987236;28;20093;-81
2024/03/09 07:15:30;;;;;;;28.20;13.77;;;;;;;;;;4990877;28;20068;-80
2024/03/09 07:17:57;;;;;;;25.70;12.80;;;;;;;;;;4964992;28;20494;-80
2024/03/09 07:20:33;;;;;;;24.25;12.25;;;;;;;;;;4981627;28;20022;-79
2024/03/09 07:23:03;;;;;;;28.30;12.43;;;;;;;;;;4972181;28;20026;-79
2024/03/09 07:25:31;;;;;;;21.55;11.30;;;;;;;;;;4984667;28;20053;-79
2024/03/09 07:27:58;;;;;;;26.10;12.10;;;;;;;;;;4975950;28;20462;-79
2024/03/09 07:30:25;;;;;;;26.92;12.90;;;;;;;;;;4986635;28;20042;-80
2024/03/09 07:32:53;;;;;;;24.73;12.20;;;;;;;;;;4974091;28;20124;-78
2024/03/09 07:35:25;;;;;;;30.10;12.73;;;;;;;;;;4971629;28;20042;-79
2024/03/09 07:38:00;;;;;;;27.15;12.95;;;;;;;;;;5003762;28;20133;-80
2024/03/09 07:40:33;;;;;;;26.40;12.85;;;;;;;;;;4982998;28;20110;-79
2024/03/09 07:43:18;;;;;;;28.98;12.75;;;;;;;;;;4996354;28;20201;-80
2024/03/09 07:45:51;;;;;;;28.40;13.10;;;;;;;;;;4998577;28;20065;-80
2024/03/09 07:48:28;;;;;;;25.85;12.45;;;;;;;;;;4965675;28;20062;-80
2024/03/09 07:50:54;;;;;;;23.92;12.18;;;;;;;;;;4987995;28;20080;-80
2024/03/09 07:53:44;;;;;;;30.95;13.52;;;;;;;;;;4987808;28;20038;-80
2024/03/09 07:56:27;;;;;;;25.48;12.88;;;;;;;;;;4984182;28;20034;-80
2024/03/09 07:59:07;;;;;;;24.98;11.98;;;;;;;;;;4999133;28;20034;-81
2024/03/09 08:01:38;;;;;;;23.15;11.68;;;;;;;;;;4971864;28;20481;-80
2024/03/09 08:04:10;;;;;;;26.02;12.50;;;;;;;;;;4969715;28;20039;-80
2024/03/09 08:06:45;;;;;;;26.17;13.00;;;;;;;;;;4995375;28;20042;-80
2024/03/09 08:09:15;;;;;;;27.35;12.93;;;;;;;;;;4996553;28;20034;-80
2024/03/09 08:11:50;;;;;;;25.90;12.73;;;;;;;;;;4998058;28;20039;-78
2024/03/09 08:14:18;;;;;;;21.10;11.15;;;;;;;;;;4984475;28;20519;-78
2024/03/09 08:16:45;;;;;;;25.05;12.38;;;;;;;;;;4966113;28;20564;-79
2024/03/09 08:19:14;;;;;;;22.25;11.75;;;;;;;;;;4976613;28;20192;-79
2024/03/09 08:21:45;;;;;;;31.60;12.75;;;;;;;;;;4972790;28;20038;-80
2024/03/09 08:24:15;;;;;;;24.70;12.02;;;;;;;;;;4958561;28;20026;-79
2024/03/09 08:26:45;;;;;;;23.10;11.75;;;;;;;;;;4972599;28;20034;-79
2024/03/09 08:29:31;;;;;;;31.30;12.55;;;;;;;;;;4989525;28;20497;-80
2024/03/09 08:32:09;;;;;;;26.58;11.55;;;;;;;;;;4987447;28;20033;-79
2024/03/09 08:34:46;;;;;;;;;;;;;;;;;;4972842;28;20030;-78
2024/03/09 08:37:18;;;;;;;26.27;11.45;;;;;;;;;;4994217;28;19917;-79
2024/03/09 08:40:18;;;;;;;22.80;11.45;;;;;;;;;;4983508;28;20119;-81
2024/03/09 08:42:51;;;;;;;21.95;11.48;;;;;;;;;;4966906;28;20038;-80
2024/03/09 08:45:47;;;;;;;27.98;12.68;;;;;;;;;;4992611;28;20434;-80
2024/03/09 08:48:23;;;;;;;26.65;12.57;;;;;;;;;;4992241;28;20117;-79
2024/03/09 08:51:33;;;;;;;23.08;11.77;;;;;;;;;;5000167;28;20030;-81
2024/03/09 08:54:05;;;;;;;28.83;11.88;;;;;;;;;;4992660;28;20068;-80
2024/03/09 08:56:35;;;;;;;21.83;10.38;;;;;;;;;;4998808;28;20077;-80
2024/03/09 08:59:15;;;;;;;24.63;11.90;;;;;;;;;;5007640;28;20069;-80
2024/03/09 09:01:48;;;;;;;22.92;11.02;;;;;;;;;;4977054;28;20034;-81
2024/03/09 09:04:17;;;;;;;24.92;12.50;;;;;;;;;;4992601;28;20045;-80
2024/03/09 09:06:50;;;;;;;28.02;12.27;;;;;;;;;;4952587;28;20045;-80
2024/03/09 09:09:24;;;;;;;21.77;11.15;;;;;;;;;;5002661;28;20043;-80
2024/03/09 09:12:05;;;;;;;21.80;11.32;;;;;;;;;;4994117;28;20043;-81
2024/03/09 09:14:41;;;;;;;22.88;11.15;;;;;;;;;;4982772;28;20053;-80
2024/03/09 09:17:16;;;;;;;22.48;11.77;;;;;;;;;;5007156;28;20038;-81
2024/03/09 09:19:44;;;;;;;21.98;11.45;;;;;;;;;;4998258;28;20113;-79
2024/03/09 09:22:10;;;;;;;24.27;11.75;;;;;;;;;;4981781;28;20178;-80
2024/03/09 09:24:44;;;;;;;29.65;13.68;;;;;;;;;;4975923;28;20092;-79
2024/03/09 09:27:18;;;;;;;24.48;11.15;;;;;;;;;;5017601;28;20046;-79
2024/03/09 09:30:12;;;;;;;24.75;11.88;;;;;;;;;;4985122;28;20113;-79
2024/03/09 09:33:38;;;;;;;25.65;12.55;;;;;;;;;;4998086;28;20038;-80
2024/03/09 09:36:34;;;;;;;23.48;11.80;;;;;;;;;;4999500;28;20049;-79
2024/03/09 09:39:01;;;;;;;24.20;11.43;;;;;;;;;;5013913;28;20038;-80
2024/03/09 09:41:29;;;;;;;25.60;12.32;;;;;;;;;;5001938;28;20033;-80
2024/03/09 09:43:59;;;;;;;24.00;11.85;;;;;;;;;;4976790;28;20108;-80
2024/03/09 09:46:29;;;;;;;25.40;11.52;;;;;;;;;;4997708;28;20026;-78
2024/03/09 09:49:03;;;;;;;19.00;10.93;;;;;;;;;;5009071;28;20046;-78
2024/03/09 09:51:31;;;;;;;21.23;11.48;;;;;;;;;;4988697;28;20049;-80
2024/03/09 09:54:02;;;;;;;21.63;10.95;;;;;;;;;;5014414;28;20199;-79
2024/03/09 09:56:30;;;;;;;23.38;10.88;;;;;;;;;;4993170;28;20042;-79
2024/03/09 09:58:58;;;;;;;19.20;10.85;;;;;;;;;;4984674;28;20026;-80
2024/03/09 10:01:23;;;;;;;18.42;10.23;;;;;;;;;;4979155;28;20057;-80
2024/03/09 10:03:49;;;;;;;21.77;11.23;;;;;;;;;;5003490;28;20028;-81
2024/03/09 10:06:22;;;;;;;17.92;9.52;;;;;;;;;;5018336;28;20044;-80
2024/03/09 10:08:48;;;;;;;18.15;10.10;;;;;;;;;;4990155;28;20065;-80
2024/03/09 10:11:14;;;;;;;21.08;10.30;;;;;;;;;;5000551;28;20065;-79
2024/03/09 10:13:40;;;;;;;20.75;10.85;;;;;;;;;;4993420;28;20481;-80
2024/03/09 10:16:05;;;;;;;19.13;11.25;;;;;;;;;;4999028;28;20045;-79
2024/03/09 10:18:31;;;;;;;18.00;10.02;;;;;;;;;;4973295;28;20041;-80
2024/03/09 10:20:59;;;;;;;18.80;9.65;;;;;;;;;;4983281;28;20125;-80
2024/03/09 10:23:29;;;;;;;20.13;10.23;;;;;;;;;;4976484;28;20030;-80
2024/03/09 10:26:03;;;;;;;15.95;8.65;;;;;;;;;;5015516;28;20075;-81
2024/03/09 10:28:28;;;;;;;18.30;9.30;;;;;;;;;;4976242;28;20493;-78
2024/03/09 10:31:01;;;;;;;17.48;9.25;;;;;;;;;;4984332;28;20026;-79
2024/03/09 10:33:28;;;;;;;13.90;8.18;;;;;;;;;;4986046;28;20036;-80
2024/03/09 10:35:57;;;;;;;17.08;9.13;;;;;;;;;;5001567;28;20018;-80
2024/03/09 10:38:23;;;;;;;17.52;9.30;;;;;;;;;;5003721;28;20168;-82
2024/03/09 10:40:51;;;;;;;16.42;9.30;;;;;;;;;;4982524;28;20062;-80
2024/03/09 10:43:19;;;;;;;14.77;7.95;;;;;;;;;;4969302;28;20096;-80
2024/03/09 10:45:50;;;;;;;20.85;9.80;;;;;;;;;;4991645;28;20042;-81
2024/03/09 10:48:16;;;;;;;16.05;8.52;;;;;;;;;;4996272;28;20061;-81
2024/03/09 10:50:49;;;;;;;16.80;8.32;;;;;;;;;;5002111;28;20073;-80
2024/03/09 10:53:28;;;;;;;19.85;9.75;;;;;;;;;;4992390;28;20060;-80
2024/03/09 10:55:56;;;;;;;18.20;10.20;;;;;;;;;;5007930;28;20034;-79
2024/03/09 10:58:26;;;;;;;32.50;14.63;;;;;;;;;;4993247;28;20062;-80
2024/03/09 11:00:52;;;;;;;17.40;9.30;;;;;;;;;;4989566;28;20031;-81
2024/03/09 11:03:25;;;;;;;14.30;9.25;;;;;;;;;;4994139;28;20026;-80
2024/03/09 11:05:53;;;;;;;17.17;9.25;;;;;;;;;;4974044;28;20033;-81
2024/03/09 11:08:19;;;;;;;23.65;12.13;;;;;;;;;;5007470;28;20076;-80
2024/03/09 11:10:46;;;;;;;17.55;9.55;;;;;;;;;;4984230;28;20046;-80
2024/03/09 11:13:13;;;;;;;14.45;8.63;;;;;;;;;;4985124;28;20088;-80
2024/03/09 11:15:39;;;;;;;16.48;9.75;;;;;;;;;;5012464;28;20045;-80
2024/03/09 11:18:09;;;;;;;13.65;8.20;;;;;;;;;;5011602;28;20034;-77
2024/03/09 11:20:47;;;;;;;16.17;8.85;;;;;;;;;;5016606;28;20036;-80
2024/03/09 11:23:13;;;;;;;15.45;8.57;;;;;;;;;;4978909;28;20026;-79
2024/03/09 11:25:49;;;;;;;21.55;10.60;;;;;;;;;;4995764;28;20041;-81
2024/03/09 11:28:15;;;;;;;18.17;9.02;;;;;;;;;;4980623;28;20054;-80
2024/03/09 11:31:28;;;;;;;15.77;9.00;;;;;;;;;;4952765;28;20038;-81
2024/03/09 11:33:57;;;;;;;19.00;9.05;;;;;;;;;;4993130;28;20026;-79
2024/03/09 11:36:41;;;;;;;15.43;8.60;;;;;;;;;;4963949;28;20348;-80
2024/03/09 11:39:11;;;;;;;15.77;8.25;;;;;;;;;;4998505;28;20094;-79
2024/03/09 11:41:44;;;;;;;14.70;8.90;;;;;;;;;;4998952;28;20049;-80
2024/03/09 11:44:10;;;;;;;16.13;8.75;;;;;;;;;;4974751;28;20409;-81
2024/03/09 11:46:36;;;;;;;16.40;9.32;;;;;;;;;;4983683;28;20037;-79
2024/03/09 11:49:03;;;;;;;14.15;7.82;;;;;;;;;;5006555;28;20393;-80
2024/03/09 11:51:33;;;;;;;13.65;8.25;;;;;;;;;;5014695;28;20030;-81
2024/03/09 11:54:03;;;;;;;14.68;9.05;;;;;;;;;;4986712;28;20442;-80
2024/03/09 11:56:29;;;;;;;12.68;7.97;;;;;;;;;;4980532;28;20027;-80
2024/03/09 11:58:55;;;;;;;15.02;8.98;;;;;;;;;;4987708;28;20037;-78
2024/03/09 12:01:20;;;;;;;18.23;8.57;;;;;;;;;;4985969;28;20038;-79
2024/03/09 12:03:53;;;;;;;12.93;7.85;;;;;;;;;;5012731;28;20120;-79
2024/03/09 12:06:22;;;;;;;17.95;9.55;;;;;;;;;;5001280;28;20026;-80
2024/03/09 12:08:49;;;;;;;14.55;8.50;;;;;;;;;;4984799;28;20045;-80
2024/03/09 12:11:14;;;;;;;14.52;8.15;;;;;;;;;;4976221;28;20030;-80
2024/03/09 12:13:40;;;;;;;15.23;8.70;;;;;;;;;;5003446;28;20061;-79
2024/03/09 12:16:06;;;;;;;13.65;8.00;;;;;;;;;;4988803;28;20502;-80
2024/03/09 12:18:34;;;;;;;15.73;8.40;;;;;;;;;;4981651;28;20038;-80
2024/03/09 12:21:00;;;;;;;13.27;8.13;;;;;;;;;;4986538;28;20486;-81
2024/03/09 12:23:28;;;;;;;12.95;7.72;;;;;;;;;;4998404;28;20041;-79
2024/03/09 12:25:53;;;;;;;13.03;7.40;;;;;;;;;;4988688;28;20045;-81
2024/03/09 12:28:19;;;;;;;13.50;8.05;;;;;;;;;;4982395;28;20096;-80
2024/03/09 12:30:48;;;;;;;13.85;7.65;;;;;;;;;;5000738;28;20034;-80
2024/03/09 12:33:14;;;;;;;12.07;7.40;;;;;;;;;;4982986;28;20034;-81
2024/03/09 12:35:41;;;;;;;13.88;8.20;;;;;;;;;;4971477;28;20065;-81
2024/03/09 12:38:10;;;;;;;13.90;7.63;;;;;;;;;;4981839;28;20072;-79
2024/03/09 12:40:36;;;;;;;12.48;7.50;;;;;;;;;;4957821;28;20026;-79
2024/03/09 12:43:03;;;;;;;14.23;8.27;;;;;;;;;;4972524;28;20402;-80
2024/03/09 12:45:28;;;;;;;13.02;8.32;;;;;;;;;;5011035;28;20038;-79
2024/03/09 12:47:54;;;;;;;14.07;8.32;;;;;;;;;;4999694;28;20029;-79
2024/03/09 12:50:21;;;;;;;12.13;7.95;;;;;;;;;;4998631;28;20027;-81
2024/03/09 12:52:52;;;;;;;11.77;7.57;;;;;;;;;;4999149;28;20097;-80
2024/03/09 12:55:19;;;;;;;14.57;8.38;;;;;;;;;;4992776;28;20026;-80
2024/03/09 12:57:49;;;;;;;12.80;7.82;;;;;;;;;;5032552;28;20068;-80
2024/03/09 13:00:22;;;;;;;13.80;8.25;;;;;;;;;;5018067;28;20029;-80
2024/03/09 13:02:49;;;;;;;15.90;8.10;;;;;;;;;;4985610;28;20027;-80
2024/03/09 13:05:22;;;;;;;12.40;8.23;;;;;;;;;;4966823;28;20031;-80
2024/03/09 13:07:51;;;;;;;14.38;8.18;;;;;;;;;;4989289;28;20041;-79
2024/03/09 13:10:35;;;;;;;15.65;8.48;;;;;;;;;;5014258;28;20042;-79
2024/03/09 13:13:03;;;;;;;13.10;8.35;;;;;;;;;;5014667;28;20041;-80
2024/03/09 13:15:29;;;;;;;13.50;8.27;;;;;;;;;;4970813;28;20033;-80
2024/03/09 13:17:58;;;;;;;15.00;7.60;;;;;;;;;;5013963;28;20040;-79
2024/03/09 13:20:35;;;;;;;13.98;8.35;;;;;;;;;;4978403;28;20121;-79
2024/03/09 13:23:03;;;;;;;17.00;7.93;;;;;;;;;;4996096;28;20038;-80
2024/03/09 13:25:33;;;;;;;15.57;8.20;;;;;;;;;;4989520;28;20026;-81
2024/03/09 13:28:00;;;;;;;13.75;7.65;;;;;;;;;;5008646;28;20482;-81
2024/03/09 13:30:26;;;;;;;10.68;6.63;;;;;;;;;;4990300;28;20040;-80
2024/03/09 13:32:53;;;;;;;13.27;8.00;;;;;;;;;;4998825;28;20077;-80
2024/03/09 13:35:22;;;;;;;11.85;8.50;;;;;;;;;;5015518;28;20034;-81
2024/03/09 13:37:53;;;;;;;13.90;8.23;;;;;;;;;;5004096;28;20629;-80
2024/03/09 13:40:21;;;;;;;16.23;8.45;;;;;;;;;;4970631;28;20030;-80
2024/03/09 13:42:48;;;;;;;13.10;8.10;;;;;;;;;;5003230;28;20497;-78
2024/03/09 13:45:15;;;;;;;16.90;8.68;;;;;;;;;;4985928;28;20281;-80
2024/03/09 13:47:40;;;;;;;12.73;7.47;;;;;;;;;;5014368;28;20037;-79
2024/03/09 13:50:07;;;;;;;14.10;8.75;;;;;;;;;;4979625;28;20050;-80
2024/03/09 13:52:33;;;;;;;15.90;9.52;;;;;;;;;;5009569;28;20028;-79
2024/03/09 13:54:58;;;;;;;18.38;10.27;;;;;;;;;;5010073;28;20041;-80
2024/03/09 13:57:25;;;;;;;13.00;8.35;;;;;;;;;;4999295;28;20030;-79
2024/03/09 13:59:51;;;;;;;15.10;8.90;;;;;;;;;;4974309;28;20038;-80
2024/03/09 14:02:19;;;;;;;13.93;8.10;;;;;;;;;;5003868;28;20038;-81
2024/03/09 14:04:47;;;;;;;13.48;8.93;;;;;;;;;;5001796;28;20566;-80
2024/03/09 14:07:14;;;;;;;12.55;7.43;;;;;;;;;;4994053;28;20371;-81
2024/03/09 14:09:53;;;;;;;11.77;7.30;;;;;;;;;;4998285;28;20034;-81
2024/03/09 14:12:20;;;;;;;15.35;8.23;;;;;;;;;;5003704;28;20034;-80
2024/03/09 14:14:56;;;;;;;12.38;7.35;;;;;;;;;;5001121;28;20034;-80
2024/03/09 14:17:22;;;;;;;11.32;6.90;;;;;;;;;;4964626;28;20116;-78
2024/03/09 14:19:47;;;;;;;11.45;8.07;;;;;;;;;;4992442;28;20123;-80
2024/03/09 14:22:17;;;;;;;10.57;7.80;;;;;;;;;;4989465;28;20123;-80
2024/03/09 14:24:46;;;;;;;13.80;7.72;;;;;;;;;;5015664;28;20144;-79
2024/03/09 14:27:17;;;;;;;10.15;6.78;;;;;;;;;;5004498;28;20026;-81
2024/03/09 14:29:47;;;;;;;9.70;6.75;;;;;;;;;;4991783;28;20038;-81
2024/03/09 14:32:17;;;;;;;10.45;7.53;;;;;;;;;;4992082;28;20198;-81
2024/03/09 14:34:44;;;;;;;9.80;7.20;;;;;;;;;;5002174;28;20113;-79
2024/03/09 14:37:12;;;;;;;10.90;7.30;;;;;;;;;;5010263;28;20134;-80
2024/03/09 14:39:39;;;;;;;13.93;7.10;;;;;;;;;;5007247;28;20416;-80
2024/03/09 14:42:05;;;;;;;10.43;7.40;;;;;;;;;;5009156;28;20029;-82
2024/03/09 14:44:32;;;;;;;14.10;8.38;;;;;;;;;;4984677;28;20060;-80
2024/03/09 14:46:57;;;;;;;19.30;10.15;;;;;;;;;;4977710;28;20050;-81
2024/03/09 14:49:23;;;;;;;13.27;8.82;;;;;;;;;;5016696;28;20022;-81
2024/03/09 14:51:49;;;;;;;16.20;8.68;;;;;;;;;;4992078;28;20558;-81
2024/03/09 14:54:19;;;;;;;14.27;7.38;;;;;;;;;;4989006;28;20122;-82